Terminal Aerodrome Forecast
Issued by NWS

Home | Current Version | Previous Version | Graphics & Text | Print | Product List | Glossary On
Versions: 1 2 3 4 5 6 7 8 9 10 11 12 13 14 15 16 17 18 19
000
FTUS43 KICT 011700
TAFHUT
TAF
KHUT 011738Z 0118/0218 12006KT P6SM SCT025 BKN050
      TEMPO 0118/0121 BKN025
     FM012100 01008KT P6SM BKN035
     FM020200 08007KT P6SM BKN050
     FM020900 VRB03KT P6SM BKN020=

USA.gov is the U.S. government's official web portal to all federal, state and local government web resources and services.